West Fargo, ND (58078)

3:14 AM CDT on July 31, 2016 (GMT -0500)
West Fargo | | Change Station

Elev 899 ft 46.88 °N, 96.91 °W | Updated 10 minutes ago

Partly Cloudy
Partly Cloudy
66.2 °F
Feels Like 66.2 °F
N
2.2
Wind Variable Wind from West

Today
High -- | Low -- °F
--% Chance of Precip.
Yesterday
High -- | Low -- °F
Precip. -- in
Pressure 29.88 in
Visibility 10.0 miles
Clouds Few 12000 ft
Dew Point 54 °F
Humidity 66%
Rainfall 0.00 in
Snow Depth Not available.
6:06 AM 9:00 PM
Waning Crescent, 8% visible
METAR KFAR 310753Z 15010KT 10SM FEW120 20/14 A2989 RMK AO2 SLP119 T02000139
Pressure 29.88 in
Visibility 10.0 miles
Clouds Few 12000 ft
Dew Point 54 °F
Humidity 66%
Rainfall 0.00 in
Snow Depth Not available.
6:06 AM 9:00 PM
Waning Crescent, 8% visible
METAR KFAR 310753Z 15010KT 10SM FEW120 20/14 A2989 RMK AO2 SLP119 T02000139

10-Day Weather Forecast

Almanac

Astronomy

Jul. 31, 2016 Rise Set
Actual Time
Civil Twilight
Nautical Twilight
Astronomical Twilight
Moon
Length of Visible Light
Length of Day
Tomorrow will be .
, % of the Moon is Illuminated

Today's Extremes

State Highs State Lows

Community

WunderPhotos

Upload Photos

1,928,768 photos uploaded!

WunderBlog® & News

Nearby

Air Quality

  Air Quality AQ Index Pollutant
Not available.

Snow Depth

Station Depth Elevation

Earthquake Activity

City Distance Mag. Time & Date
Minimum magnitude displayed is 2.5.

Coastal Water Temperatures

Place Temperature

Stations

Nearby Weather Stations

Station Location Temp. Windchill Dew Point Humidity Wind Precip. Elev Updated Type
                   

Watches & Warnings

There are currently no watches in effect.